createdAt,value
2023-11-11T00:01:49.200Z,100.00
2023-11-11T00:04:16.260Z,100.00
2023-11-11T00:06:43.500Z,100.00
2023-11-11T00:09:14.502Z,100.00
2023-11-11T00:11:41.691Z,100.00
2023-11-11T00:14:11.216Z,100.00
2023-11-11T00:16:38.488Z,100.00
2023-11-11T00:19:05.402Z,100.00
2023-11-11T00:21:32.485Z,100.00
2023-11-11T00:23:59.387Z,100.00
2023-11-11T00:26:26.636Z,100.00
2023-11-11T00:28:53.689Z,100.00
2023-11-11T00:31:20.553Z,100.00
2023-11-11T00:33:47.517Z,100.00
2023-11-11T00:36:16.982Z,100.00
2023-11-11T00:38:43.848Z,100.00
2023-11-11T00:41:10.667Z,100.00
2023-11-11T00:43:37.713Z,99.94
2023-11-11T00:46:04.888Z,99.71
2023-11-11T00:48:32.044Z,99.45
2023-11-11T00:51:01.719Z,99.43
2023-11-11T00:53:28.621Z,99.34
2023-11-11T00:55:55.960Z,99.37
2023-11-11T00:58:22.968Z,99.32
2023-11-11T01:00:49.808Z,99.43
2023-11-11T01:03:16.784Z,99.28
2023-11-11T01:05:43.905Z,99.41
2023-11-11T01:08:11.057Z,99.32
2023-11-11T01:10:38.742Z,99.48
2023-11-11T01:13:06.897Z,99.74
2023-11-11T01:15:34.959Z,99.91
2023-11-11T01:18:02.032Z,99.95
2023-11-11T01:20:29.057Z,99.93
2023-11-11T01:22:56.719Z,99.97
2023-11-11T01:25:23.671Z,99.97
2023-11-11T01:27:50.715Z,99.95
2023-11-11T01:30:20.222Z,99.93
2023-11-11T01:32:47.292Z,100.00
2023-11-11T01:35:14.314Z,100.00
2023-11-11T01:37:41.269Z,100.00
2023-11-11T01:40:08.724Z,100.00
2023-11-11T01:42:35.808Z,100.00
2023-11-11T01:45:03.121Z,100.00
2023-11-11T01:47:30.502Z,100.00
2023-11-11T01:49:58.378Z,100.00
2023-11-11T01:52:26.007Z,100.00
2023-11-11T01:54:53.239Z,100.00
2023-11-11T01:57:21.120Z,100.00
2023-11-11T01:59:48.379Z,100.00
2023-11-11T02:02:16.284Z,100.00
2023-11-11T02:04:43.472Z,100.00
2023-11-11T02:07:10.539Z,100.00
2023-11-11T02:09:38.422Z,100.00
2023-11-11T02:12:06.162Z,100.00
2023-11-11T02:14:38.023Z,100.00
2023-11-11T02:17:05.902Z,100.00
2023-11-11T02:19:32.841Z,100.00
2023-11-11T02:21:59.577Z,100.00
2023-11-11T02:24:27.919Z,100.00
2023-11-11T02:26:55.217Z,100.00
2023-11-11T02:29:22.257Z,100.00
2023-11-11T02:31:49.106Z,100.00
2023-11-11T02:34:16.868Z,100.00
2023-11-11T02:36:53.920Z,99.86
2023-11-11T02:39:27.779Z,99.43
2023-11-11T02:41:54.704Z,98.77
2023-11-11T02:44:21.546Z,97.67
2023-11-11T02:46:48.813Z,96.99
2023-11-11T02:49:16.094Z,95.95
2023-11-11T02:51:43.034Z,94.95
2023-11-11T02:54:09.988Z,94.59
2023-11-11T02:56:37.198Z,94.29
2023-11-11T02:59:04.137Z,93.49
2023-11-11T03:01:41.878Z,93.13
2023-11-11T03:04:09.276Z,92.33
2023-11-11T03:06:42.730Z,91.69
2023-11-11T03:09:13.357Z,91.98
2023-11-11T03:11:40.891Z,91.73
2023-11-11T03:14:07.945Z,91.77
2023-11-11T03:16:39.596Z,91.89
2023-11-11T03:19:07.582Z,91.89
2023-11-11T03:21:35.066Z,92.31
2023-11-11T03:24:02.979Z,92.62
2023-11-11T03:26:30.038Z,92.85
2023-11-11T03:28:57.080Z,93.09
2023-11-11T03:31:24.157Z,93.21
2023-11-11T03:33:51.421Z,93.32
2023-11-11T03:36:18.433Z,93.23
2023-11-11T03:38:45.383Z,93.33
2023-11-11T03:41:12.234Z,93.43
2023-11-11T03:43:39.693Z,93.65
2023-11-11T03:46:06.800Z,93.83
2023-11-11T03:48:33.793Z,93.97
2023-11-11T03:51:00.844Z,94.49
2023-11-11T03:53:27.860Z,94.72
2023-11-11T03:55:54.918Z,94.86
2023-11-11T03:58:23.593Z,95.11
2023-11-11T04:00:51.098Z,95.38
2023-11-11T04:03:18.506Z,95.56
2023-11-11T04:05:47.056Z,95.81
2023-11-11T04:08:15.053Z,95.98
2023-11-11T04:10:41.900Z,96.06
2023-11-11T04:13:10.079Z,95.96
2023-11-11T04:15:37.601Z,95.90
2023-11-11T04:18:04.638Z,95.86
2023-11-11T04:20:31.954Z,96.07
2023-11-11T04:22:59.920Z,96.11
2023-11-11T04:25:26.855Z,96.20
2023-11-11T04:27:54.326Z,96.07
2023-11-11T04:30:21.535Z,96.10
2023-11-11T04:32:48.568Z,96.07
2023-11-11T04:35:15.453Z,95.65
2023-11-11T04:37:42.506Z,95.32
2023-11-11T04:40:11.289Z,95.10
2023-11-11T04:42:39.493Z,95.09
2023-11-11T04:45:07.432Z,94.66
2023-11-11T04:47:34.289Z,94.38
2023-11-11T04:50:02.145Z,93.87
2023-11-11T04:52:31.861Z,92.86
2023-11-11T04:54:58.800Z,92.13
2023-11-11T04:57:25.892Z,91.36
2023-11-11T04:59:52.901Z,90.95
2023-11-11T05:02:19.835Z,90.45
2023-11-11T05:04:46.994Z,89.95
2023-11-11T05:07:14.031Z,90.28
2023-11-11T05:09:41.205Z,90.48
2023-11-11T05:12:09.458Z,90.71
2023-11-11T05:14:37.118Z,91.18
2023-11-11T05:17:08.341Z,91.23
2023-11-11T05:19:35.512Z,91.37
2023-11-11T05:22:06.775Z,91.23
2023-11-11T05:24:33.724Z,91.51
2023-11-11T05:27:00.861Z,91.23
2023-11-11T05:29:27.814Z,91.10
2023-11-11T05:31:54.760Z,90.75
2023-11-11T05:34:21.799Z,90.97
2023-11-11T05:36:50.925Z,91.42
2023-11-11T05:39:17.751Z,91.34
2023-11-11T05:41:44.695Z,91.38
2023-11-11T05:44:11.624Z,91.31
2023-11-11T05:46:40.376Z,91.18
2023-11-11T05:49:07.695Z,90.63
2023-11-11T05:51:34.735Z,89.37
2023-11-11T05:54:02.683Z,88.37
2023-11-11T05:56:29.833Z,86.75
2023-11-11T05:58:59.649Z,85.50
2023-11-11T06:01:27.208Z,84.11
2023-11-11T06:03:54.194Z,83.03
2023-11-11T06:06:21.166Z,82.33
2023-11-11T06:08:48.662Z,82.04
2023-11-11T06:11:16.732Z,82.12
2023-11-11T06:13:43.675Z,82.19
2023-11-11T06:16:10.595Z,81.66
2023-11-11T06:18:37.586Z,81.67
2023-11-11T06:21:08.748Z,81.43
2023-11-11T06:26:08.486Z,79.68
2023-11-11T06:28:35.407Z,79.40
2023-11-11T06:31:02.631Z,78.11
2023-11-11T06:33:29.967Z,76.30
2023-11-11T06:35:59.336Z,75.20
2023-11-11T06:38:26.358Z,75.04
2023-11-11T06:40:53.207Z,76.01
2023-11-11T06:43:20.154Z,77.25
2023-11-11T06:45:48.141Z,77.46
2023-11-11T06:48:17.003Z,77.46
2023-11-11T06:50:43.936Z,77.19
2023-11-11T06:53:12.614Z,76.22
2023-11-11T06:55:39.577Z,73.66
2023-11-11T06:58:07.980Z,70.76
2023-11-11T07:00:35.220Z,68.58
2023-11-11T07:03:03.684Z,66.14
2023-11-11T07:05:30.751Z,64.96
2023-11-11T07:07:57.678Z,62.48
2023-11-11T07:10:24.612Z,59.82
2023-11-11T07:12:52.342Z,59.37
2023-11-11T07:15:22.027Z,57.72
2023-11-11T07:17:49.222Z,56.13
2023-11-11T07:20:19.761Z,55.61
2023-11-11T07:22:46.713Z,55.69
2023-11-11T07:25:13.756Z,55.06
2023-11-11T07:27:40.650Z,53.59
2023-11-11T07:30:10.948Z,53.50
2023-11-11T07:32:44.535Z,53.16
2023-11-11T07:35:17.721Z,52.26
2023-11-11T07:37:47.329Z,52.04
2023-11-11T07:40:17.355Z,52.27
2023-11-11T07:42:44.338Z,51.51
2023-11-11T07:45:12.165Z,51.61
2023-11-11T07:47:42.247Z,50.59
2023-11-11T07:50:10.357Z,50.18
2023-11-11T07:52:37.101Z,49.92
2023-11-11T07:55:05.914Z,49.52
2023-11-11T08:00:07.129Z,49.14
2023-11-11T08:02:36.604Z,48.01
2023-11-11T08:05:04.449Z,47.41
2023-11-11T08:07:31.462Z,46.53
2023-11-11T08:09:58.398Z,45.96
2023-11-11T08:12:25.361Z,46.02
2023-11-11T08:14:53.105Z,45.65
2023-11-11T08:17:20.219Z,45.11
2023-11-11T08:19:47.732Z,44.83
2023-11-11T08:22:14.679Z,45.01
2023-11-11T08:24:41.750Z,45.10
2023-11-11T08:27:09.782Z,44.98
2023-11-11T08:29:37.130Z,44.17
2023-11-11T08:32:04.794Z,43.21
2023-11-11T08:34:31.843Z,42.82
2023-11-11T08:36:58.934Z,41.82
2023-11-11T08:39:25.972Z,41.66
2023-11-11T08:41:52.985Z,41.49
2023-11-11T08:44:20.673Z,42.10
2023-11-11T08:46:48.064Z,41.99
2023-11-11T08:49:15.308Z,41.97
2023-11-11T08:51:42.319Z,41.91
2023-11-11T08:54:09.545Z,42.94
2023-11-11T08:56:36.488Z,43.65
2023-11-11T08:59:04.811Z,43.16
2023-11-11T09:01:33.711Z,43.05
2023-11-11T09:04:01.149Z,44.02
2023-11-11T09:06:28.706Z,44.39
2023-11-11T09:08:57.466Z,45.20
2023-11-11T09:11:25.942Z,44.67
2023-11-11T09:13:53.306Z,43.88
2023-11-11T09:16:20.291Z,42.31
2023-11-11T09:18:48.039Z,41.69
2023-11-11T09:21:15.674Z,41.54
2023-11-11T09:23:42.946Z,42.28
2023-11-11T09:26:09.972Z,43.42
2023-11-11T09:28:37.834Z,44.55
2023-11-11T09:31:05.054Z,45.79
2023-11-11T09:33:32.205Z,47.00
2023-11-11T09:35:58.912Z,48.61
2023-11-11T09:38:26.040Z,49.44
2023-11-11T09:41:11.041Z,50.65
2023-11-11T09:43:38.040Z,51.92
2023-11-11T09:46:09.750Z,52.84
2023-11-11T09:48:36.953Z,52.75
2023-11-11T09:51:07.442Z,52.79
2023-11-11T09:53:36.208Z,52.89
2023-11-11T09:56:05.696Z,53.27
2023-11-11T09:58:34.689Z,53.18
2023-11-11T10:01:01.482Z,53.80
2023-11-11T10:03:29.865Z,54.45
2023-11-11T10:05:58.267Z,55.31
2023-11-11T10:08:25.721Z,55.62
2023-11-11T10:10:53.405Z,55.68
2023-11-11T10:13:21.899Z,55.59
2023-11-11T10:15:49.162Z,55.40
2023-11-11T10:18:16.882Z,55.09
2023-11-11T10:20:47.699Z,56.07
2023-11-11T10:23:16.510Z,59.27
2023-11-11T10:25:43.996Z,61.07
2023-11-11T10:28:16.784Z,61.72
2023-11-11T10:30:44.002Z,61.80
2023-11-11T10:33:12.550Z,61.95
2023-11-11T10:35:40.668Z,62.41
2023-11-11T10:38:08.553Z,63.42
2023-11-11T10:40:35.634Z,64.44
2023-11-11T10:43:05.066Z,65.09
2023-11-11T10:45:33.755Z,65.92
2023-11-11T10:48:01.941Z,66.99
2023-11-11T10:50:31.238Z,67.52
2023-11-11T10:52:58.856Z,67.88
2023-11-11T10:55:27.573Z,67.71
2023-11-11T10:57:57.198Z,67.68
2023-11-11T11:00:25.259Z,67.42
2023-11-11T11:02:54.753Z,66.35
2023-11-11T11:05:59.602Z,66.12
2023-11-11T11:08:35.765Z,65.71
2023-11-11T11:11:29.028Z,65.42
2023-11-11T11:14:08.612Z,65.02
2023-11-11T11:16:39.110Z,64.97
2023-11-11T11:19:08.548Z,65.08
2023-11-11T11:21:35.954Z,65.19
2023-11-11T11:24:10.169Z,65.37
2023-11-11T11:26:37.421Z,65.52
2023-11-11T11:29:14.445Z,65.52
2023-11-11T11:32:04.129Z,65.69
2023-11-11T11:34:31.258Z,65.71
2023-11-11T11:36:58.274Z,65.68
2023-11-11T11:39:51.335Z,66.41
2023-11-11T11:42:20.982Z,66.33
2023-11-11T11:44:58.758Z,66.27
2023-11-11T11:47:33.480Z,66.29
2023-11-11T11:50:01.672Z,67.04
2023-11-11T11:52:28.830Z,66.57
2023-11-11T11:54:56.566Z,66.70
2023-11-11T11:57:28.318Z,66.68
2023-11-11T12:00:14.444Z,66.76
2023-11-11T12:02:41.916Z,66.84
2023-11-11T12:05:09.819Z,66.69
2023-11-11T12:07:38.857Z,66.62
2023-11-11T12:10:07.820Z,65.95
2023-11-11T12:12:35.029Z,65.69
2023-11-11T12:15:12.796Z,65.44
2023-11-11T12:17:43.243Z,65.48
2023-11-11T12:20:15.065Z,65.88
2023-11-11T12:22:43.797Z,69.19
2023-11-11T12:25:11.506Z,71.89
2023-11-11T12:27:38.570Z,73.46
2023-11-11T12:30:22.535Z,75.63
2023-11-11T12:33:11.683Z,77.78
2023-11-11T12:35:41.729Z,79.26
2023-11-11T12:38:24.538Z,79.40
2023-11-11T12:40:56.189Z,79.95
2023-11-11T12:43:25.172Z,80.26
2023-11-11T12:45:55.732Z,80.58
2023-11-11T12:48:29.696Z,82.17
2023-11-11T12:50:57.874Z,83.79
2023-11-11T12:53:24.735Z,86.06
2023-11-11T12:56:12.454Z,88.41
2023-11-11T12:58:39.239Z,90.44
2023-11-11T13:01:06.930Z,92.03
2023-11-11T13:03:34.694Z,93.22
2023-11-11T13:06:06.425Z,94.05
2023-11-11T13:08:35.362Z,94.77
2023-11-11T13:11:03.229Z,95.90
2023-11-11T13:13:30.824Z,96.91
2023-11-11T13:16:00.828Z,97.83
2023-11-11T13:18:27.958Z,97.96
2023-11-11T13:20:59.549Z,98.41
2023-11-11T13:23:30.238Z,99.24
2023-11-11T13:25:57.702Z,99.40
2023-11-11T13:28:25.040Z,99.78
2023-11-11T13:30:54.455Z,99.93
2023-11-11T13:33:21.678Z,99.93
2023-11-11T13:35:51.518Z,99.87
2023-11-11T13:38:21.174Z,99.69
2023-11-11T13:40:49.486Z,98.99
2023-11-11T13:43:17.789Z,98.99
2023-11-11T13:45:47.478Z,98.95
2023-11-11T13:48:15.022Z,98.96
2023-11-11T13:50:41.925Z,99.24
2023-11-11T13:53:09.871Z,98.78
2023-11-11T13:55:37.139Z,98.51
2023-11-11T13:58:04.173Z,98.55
2023-11-11T14:00:31.936Z,98.50
2023-11-11T14:03:02.772Z,98.19
2023-11-11T14:05:30.154Z,98.79
2023-11-11T14:07:57.068Z,99.39
2023-11-11T14:10:28.367Z,99.76
2023-11-11T14:12:56.532Z,99.66
2023-11-11T14:15:30.937Z,98.89
2023-11-11T14:17:58.330Z,97.34
2023-11-11T14:20:29.510Z,95.48
2023-11-11T14:23:01.253Z,94.71
2023-11-11T14:25:28.871Z,93.98
2023-11-11T14:27:56.604Z,93.43
2023-11-11T14:30:26.597Z,92.73
2023-11-11T14:32:56.833Z,92.54
2023-11-11T14:35:24.146Z,93.63
2023-11-11T14:37:55.689Z,93.85
2023-11-11T14:40:23.651Z,93.91
2023-11-11T14:42:55.429Z,93.74
2023-11-11T14:45:23.565Z,93.74
2023-11-11T14:47:51.446Z,94.04
2023-11-11T14:50:20.878Z,94.42
2023-11-11T14:52:51.601Z,95.05
2023-11-11T14:55:18.834Z,95.20
2023-11-11T14:57:47.808Z,95.47
2023-11-11T15:00:27.741Z,95.49
2023-11-11T15:02:56.319Z,95.42
2023-11-11T15:05:23.929Z,95.90
2023-11-11T15:07:51.913Z,95.93
2023-11-11T15:10:20.430Z,96.06
2023-11-11T15:12:51.682Z,96.34
2023-11-11T15:15:19.770Z,96.71
2023-11-11T15:17:47.282Z,97.15
2023-11-11T15:20:16.303Z,97.18
2023-11-11T15:22:46.553Z,97.39
2023-11-11T15:25:15.913Z,97.31
2023-11-11T15:27:43.696Z,97.25
2023-11-11T15:30:15.769Z,97.62
2023-11-11T15:32:42.939Z,97.65
2023-11-11T15:35:10.680Z,97.98
2023-11-11T15:37:38.266Z,98.40
2023-11-11T15:40:08.994Z,98.64
2023-11-11T15:42:36.844Z,98.71
2023-11-11T15:45:07.908Z,98.72
2023-11-11T15:47:35.157Z,98.79
2023-11-11T15:50:04.665Z,98.88
2023-11-11T15:52:31.960Z,99.10
2023-11-11T15:54:58.937Z,99.67
2023-11-11T15:57:25.996Z,99.91
2023-11-11T15:59:52.697Z,100.00
2023-11-11T16:02:19.732Z,100.00
2023-11-11T16:04:47.558Z,100.00
2023-11-11T16:07:14.893Z,100.00
2023-11-11T16:09:41.835Z,100.00
2023-11-11T16:12:12.270Z,100.00
2023-11-11T16:14:40.234Z,100.00
2023-11-11T16:17:07.641Z,100.00
2023-11-11T16:19:35.506Z,100.00
2023-11-11T16:22:04.146Z,100.00
2023-11-11T16:24:31.088Z,100.00
2023-11-11T16:26:57.929Z,100.00
2023-11-11T16:29:24.983Z,100.00
2023-11-11T16:31:52.211Z,100.00
2023-11-11T16:34:21.453Z,100.00
2023-11-11T16:36:48.498Z,100.00
2023-11-11T16:39:19.313Z,100.00
2023-11-11T16:41:49.815Z,100.00
2023-11-11T16:44:17.638Z,100.00
2023-11-11T16:46:44.463Z,100.00
2023-11-11T16:49:11.400Z,100.00
2023-11-11T16:51:38.240Z,100.00
2023-11-11T16:54:05.811Z,100.00
2023-11-11T16:56:32.851Z,100.00
2023-11-11T16:58:59.706Z,100.00
2023-11-11T17:01:26.851Z,100.00
2023-11-11T17:03:57.441Z,100.00
2023-11-11T17:06:24.861Z,100.00
2023-11-11T17:08:51.935Z,100.00
2023-11-11T17:11:18.818Z,100.00
2023-11-11T17:13:46.195Z,100.00
2023-11-11T17:16:13.123Z,100.00
2023-11-11T17:18:40.387Z,100.00
2023-11-11T17:21:07.839Z,100.00
2023-11-11T17:23:34.769Z,100.00
2023-11-11T17:26:01.607Z,100.00
2023-11-11T17:28:31.908Z,100.00
2023-11-11T17:30:59.073Z,100.00
2023-11-11T17:33:35.738Z,100.00
2023-11-11T17:36:09.050Z,100.00
2023-11-11T17:38:39.239Z,100.00
2023-11-11T17:41:12.604Z,100.00
2023-11-11T17:43:39.964Z,100.00
2023-11-11T17:46:07.419Z,100.00
2023-11-11T17:48:35.994Z,100.00
2023-11-11T17:51:05.347Z,100.00
2023-11-11T17:53:32.237Z,100.00
2023-11-11T17:56:00.710Z,100.00
2023-11-11T17:58:28.256Z,100.00
2023-11-11T18:00:55.401Z,100.00
2023-11-11T18:03:22.331Z,100.00
2023-11-11T18:05:51.142Z,100.00
2023-11-11T18:08:18.096Z,100.00
2023-11-11T18:10:44.929Z,100.00
2023-11-11T18:13:13.306Z,99.93
2023-11-11T18:15:40.148Z,99.57
2023-11-11T18:18:07.679Z,99.34
2023-11-11T18:20:34.671Z,99.40
2023-11-11T18:23:01.730Z,99.41
2023-11-11T18:25:28.765Z,99.58
2023-11-11T18:27:55.721Z,99.50
2023-11-11T18:30:23.667Z,99.95
2023-11-11T18:32:50.704Z,100.00
2023-11-11T18:35:17.880Z,100.00
2023-11-11T18:37:44.948Z,100.00
2023-11-11T18:40:12.567Z,100.00
2023-11-11T18:42:39.420Z,100.00
2023-11-11T18:45:09.743Z,100.00
2023-11-11T18:47:36.687Z,99.91
2023-11-11T18:50:16.172Z,99.86
2023-11-11T18:52:50.214Z,99.91
2023-11-11T18:55:17.175Z,99.58
2023-11-11T18:57:43.932Z,99.37
2023-11-11T19:00:12.444Z,99.36
2023-11-11T19:02:39.449Z,99.52
2023-11-11T19:05:10.216Z,99.30
2023-11-11T19:07:37.871Z,99.22
2023-11-11T19:10:08.361Z,98.80
2023-11-11T19:12:36.042Z,98.46
2023-11-11T19:15:04.519Z,98.15
2023-11-11T19:17:31.977Z,97.69
2023-11-11T19:19:59.770Z,97.35
2023-11-11T19:22:29.119Z,96.53
2023-11-11T19:24:58.268Z,95.87
2023-11-11T19:27:25.179Z,95.87
2023-11-11T19:29:52.403Z,96.40
2023-11-11T19:32:20.789Z,96.76
2023-11-11T19:34:48.140Z,96.40
2023-11-11T19:37:15.265Z,96.56
2023-11-11T19:39:42.366Z,96.61
2023-11-11T19:42:09.777Z,96.69
2023-11-11T19:44:36.893Z,96.95
2023-11-11T19:47:04.347Z,97.12
2023-11-11T19:49:31.271Z,97.31
2023-11-11T19:51:58.436Z,97.58
2023-11-11T19:54:25.516Z,97.37
2023-11-11T19:56:52.827Z,97.22
2023-11-11T19:59:19.693Z,96.92
2023-11-11T20:01:46.768Z,96.48
2023-11-11T20:04:13.980Z,96.03
2023-11-11T20:06:41.023Z,95.71
2023-11-11T20:09:08.883Z,95.39
2023-11-11T20:11:35.936Z,94.92
2023-11-11T20:14:03.042Z,94.86
2023-11-11T20:16:29.881Z,94.72
2023-11-11T20:18:56.875Z,94.79
2023-11-11T20:21:23.928Z,94.88
2023-11-11T20:23:50.978Z,95.23
2023-11-11T20:26:18.371Z,95.28
2023-11-11T20:28:45.411Z,94.84
2023-11-11T20:31:15.946Z,93.85
2023-11-11T20:33:42.840Z,93.69
2023-11-11T20:36:10.014Z,93.43
2023-11-11T20:38:38.683Z,93.09
2023-11-11T20:41:05.859Z,92.78
2023-11-11T20:43:36.282Z,92.41
2023-11-11T20:46:03.562Z,92.60
2023-11-11T20:48:30.556Z,92.14
2023-11-11T20:50:57.636Z,91.88
2023-11-11T20:53:24.552Z,91.86
2023-11-11T20:55:51.738Z,91.36
2023-11-11T20:58:20.089Z,90.93
2023-11-11T21:00:47.135Z,90.70
2023-11-11T21:03:14.629Z,90.69
2023-11-11T21:05:41.754Z,90.54
2023-11-11T21:08:09.246Z,90.66
2023-11-11T21:10:36.958Z,90.20
2023-11-11T21:13:04.207Z,90.10
2023-11-11T21:15:31.156Z,89.85
2023-11-11T21:17:58.638Z,89.67
2023-11-11T21:20:26.684Z,89.64
2023-11-11T21:22:53.755Z,88.68
2023-11-11T21:25:22.002Z,88.18
2023-11-11T21:27:49.388Z,88.31
2023-11-11T21:30:16.725Z,87.96
2023-11-11T21:32:44.073Z,87.81
2023-11-11T21:35:11.167Z,86.81
2023-11-11T21:37:38.339Z,86.29
2023-11-11T21:40:08.187Z,86.65
2023-11-11T21:42:35.026Z,86.24
2023-11-11T21:45:01.886Z,86.12
2023-11-11T21:47:29.061Z,85.91
2023-11-11T21:49:56.188Z,86.13
2023-11-11T21:52:23.635Z,86.44
2023-11-11T21:54:50.575Z,86.49
2023-11-11T21:57:17.713Z,86.54
2023-11-11T21:59:44.778Z,86.32
2023-11-11T22:02:11.799Z,86.33
2023-11-11T22:04:41.848Z,86.59
2023-11-11T22:07:08.785Z,86.21
2023-11-11T22:09:35.496Z,86.10
2023-11-11T22:12:06.859Z,86.09
2023-11-11T22:14:34.235Z,86.15
2023-11-11T22:17:01.438Z,86.21
2023-11-11T22:19:28.637Z,85.77
2023-11-11T22:21:55.486Z,85.65
2023-11-11T22:24:22.421Z,85.81
2023-11-11T22:26:50.895Z,85.67
2023-11-11T22:29:18.760Z,85.93
2023-11-11T22:31:45.760Z,86.06
2023-11-11T22:34:12.673Z,86.24
2023-11-11T22:36:39.901Z,85.91
2023-11-11T22:39:06.864Z,85.76
2023-11-11T22:41:36.251Z,85.77
2023-11-11T22:44:03.131Z,85.94
2023-11-11T22:46:30.182Z,85.24
2023-11-11T22:48:57.089Z,84.93
2023-11-11T22:51:24.039Z,84.99
2023-11-11T22:53:50.974Z,85.23
2023-11-11T22:56:18.056Z,85.47
2023-11-11T22:58:45.079Z,84.96
2023-11-11T23:01:12.423Z,84.72
2023-11-11T23:03:39.492Z,84.56
2023-11-11T23:06:06.550Z,84.10
2023-11-11T23:08:33.881Z,84.07
2023-11-11T23:11:01.478Z,83.58
2023-11-11T23:13:30.640Z,83.73
2023-11-11T23:15:57.802Z,83.88
2023-11-11T23:18:26.039Z,83.37
2023-11-11T23:21:03.498Z,82.88
2023-11-11T23:23:37.684Z,82.61
2023-11-11T23:26:08.945Z,81.54
2023-11-11T23:28:36.784Z,80.63
2023-11-11T23:31:07.235Z,80.72
2023-11-11T23:33:36.661Z,80.38
2023-11-11T23:36:04.481Z,79.42
2023-11-11T23:38:31.435Z,79.78
2023-11-11T23:40:58.715Z,78.91
2023-11-11T23:43:25.725Z,78.00
2023-11-11T23:45:52.577Z,77.24
2023-11-11T23:48:20.332Z,76.50
2023-11-11T23:50:47.480Z,76.23
2023-11-11T23:53:14.481Z,76.18
2023-11-11T23:55:42.543Z,76.02
2023-11-11T23:58:10.575Z,76.14
